createdAt,value
2023-04-11T00:01:49.656Z,90.48
2023-04-11T00:04:55.637Z,94.75
2023-04-11T00:08:00.922Z,93.07
2023-04-11T00:11:06.897Z,92.37
2023-04-11T00:14:12.819Z,92.89
2023-04-11T00:17:18.420Z,93.50
2023-04-11T00:20:23.892Z,95.09
2023-04-11T00:23:29.723Z,95.14
2023-04-11T00:26:35.453Z,93.03
2023-04-11T00:29:41.078Z,92.45
2023-04-11T00:32:47.826Z,91.02
2023-04-11T00:35:53.252Z,94.80
2023-04-11T00:38:58.811Z,97.40
2023-04-11T00:42:06.986Z,94.50
2023-04-11T00:45:12.568Z,96.30
2023-04-11T00:48:18.039Z,97.60
2023-04-11T00:51:24.315Z,97.34
2023-04-11T00:54:30.697Z,98.61
2023-04-11T00:57:38.050Z,98.78
2023-04-11T01:00:43.562Z,100.00
2023-04-11T01:03:49.118Z,99.42
2023-04-11T01:06:59.631Z,97.02
2023-04-11T01:10:06.159Z,99.31
2023-04-11T01:13:13.233Z,100.00
2023-04-11T01:16:21.963Z,100.00
2023-04-11T01:19:27.954Z,100.00
2023-04-11T01:22:34.156Z,100.00
2023-04-11T01:25:42.163Z,100.00
2023-04-11T01:28:49.856Z,100.00
2023-04-11T01:31:55.836Z,100.00
2023-04-11T01:35:04.491Z,100.00
2023-04-11T01:38:10.157Z,100.00
2023-04-11T01:41:18.205Z,100.00
2023-04-11T01:44:25.513Z,100.00
2023-04-11T01:47:30.610Z,100.00
2023-04-11T01:50:36.440Z,100.00
2023-04-11T01:53:41.831Z,100.00
2023-04-11T01:56:47.510Z,100.00
2023-04-11T01:59:53.173Z,100.00
2023-04-11T02:02:59.077Z,100.00
2023-04-11T02:06:05.335Z,100.00
2023-04-11T02:09:11.129Z,100.00
2023-04-11T02:12:16.442Z,100.00
2023-04-11T02:15:21.598Z,100.00
2023-04-11T02:18:27.455Z,100.00
2023-04-11T02:21:34.200Z,100.00
2023-04-11T02:24:39.629Z,100.00
2023-04-11T02:27:45.029Z,100.00
2023-04-11T02:30:51.244Z,100.00
2023-04-11T02:33:56.775Z,100.00
2023-04-11T02:37:01.929Z,100.00
2023-04-11T02:40:08.430Z,100.00
2023-04-11T02:43:16.996Z,100.00
2023-04-11T02:46:22.773Z,100.00
2023-04-11T02:49:28.584Z,100.00
2023-04-11T02:52:34.936Z,100.00
2023-04-11T02:55:42.092Z,100.00
2023-04-11T02:58:47.721Z,100.00
2023-04-11T03:02:01.352Z,100.00
2023-04-11T03:05:09.426Z,100.00
2023-04-11T03:08:17.961Z,100.00
2023-04-11T03:11:28.970Z,100.00
2023-04-11T03:14:34.282Z,100.00
2023-04-11T03:17:40.130Z,100.00
2023-04-11T03:20:47.498Z,100.00
2023-04-11T03:23:54.872Z,100.00
2023-04-11T03:27:01.792Z,100.00
2023-04-11T03:30:08.676Z,100.00
2023-04-11T03:33:20.369Z,100.00
2023-04-11T03:36:28.790Z,100.00
2023-04-11T03:39:40.073Z,100.00
2023-04-11T03:42:49.984Z,100.00
2023-04-11T03:45:59.851Z,100.00
2023-04-11T03:49:21.944Z,100.00
2023-04-11T03:52:32.292Z,100.00
2023-04-11T03:55:37.486Z,100.00
2023-04-11T03:58:44.654Z,100.00
2023-04-11T04:01:50.132Z,100.00
2023-04-11T04:04:58.629Z,100.00
2023-04-11T04:08:08.061Z,100.00
2023-04-11T04:11:22.219Z,100.00
2023-04-11T04:14:28.344Z,100.00
2023-04-11T04:17:34.402Z,100.00
2023-04-11T04:20:43.707Z,100.00
2023-04-11T04:23:49.154Z,100.00
2023-04-11T04:27:04.254Z,100.00
2023-04-11T04:30:29.728Z,100.00
2023-04-11T04:33:46.503Z,100.00
2023-04-11T04:37:02.937Z,100.00
2023-04-11T04:40:21.050Z,100.00
2023-04-11T04:43:34.358Z,100.00
2023-04-11T04:46:57.645Z,100.00
2023-04-11T04:50:06.871Z,100.00
2023-04-11T04:53:12.797Z,100.00
2023-04-11T04:56:24.213Z,100.00
2023-04-11T04:59:32.177Z,100.00
2023-04-11T05:02:48.385Z,100.00
2023-04-11T05:05:54.680Z,100.00
2023-04-11T05:09:01.809Z,100.00
2023-04-11T05:12:08.002Z,100.00
2023-04-11T05:15:16.332Z,100.00
2023-04-11T05:18:21.754Z,100.00
2023-04-11T05:21:27.231Z,100.00
2023-04-11T05:24:33.680Z,100.00
2023-04-11T05:27:40.179Z,100.00
2023-04-11T05:30:46.524Z,100.00
2023-04-11T05:33:52.996Z,100.00
2023-04-11T05:36:59.937Z,100.00
2023-04-11T05:40:08.791Z,100.00
2023-04-11T05:43:15.253Z,100.00
2023-04-11T05:46:21.713Z,100.00
2023-04-11T05:49:27.476Z,100.00
2023-04-11T05:52:32.771Z,100.00
2023-04-11T05:55:38.413Z,100.00
2023-04-11T05:58:44.540Z,100.00
2023-04-11T06:01:51.289Z,100.00
2023-04-11T06:04:56.810Z,100.00
2023-04-11T06:08:03.426Z,100.00
2023-04-11T06:11:09.799Z,100.00
2023-04-11T06:14:15.843Z,100.00
2023-04-11T06:17:21.156Z,100.00
2023-04-11T06:20:26.590Z,100.00
2023-04-11T06:23:31.653Z,100.00
2023-04-11T06:26:37.598Z,100.00
2023-04-11T06:29:46.554Z,100.00
2023-04-11T06:32:52.699Z,99.36
2023-04-11T06:35:58.972Z,99.17
2023-04-11T06:39:05.889Z,98.50
2023-04-11T06:42:11.659Z,98.60
2023-04-11T06:45:21.883Z,100.00
2023-04-11T06:48:27.960Z,100.00
2023-04-11T06:51:36.968Z,97.06
2023-04-11T06:54:42.595Z,91.97
2023-04-11T06:57:47.680Z,88.16
2023-04-11T07:00:53.264Z,89.83
2023-04-11T07:03:59.432Z,87.75
2023-04-11T07:07:05.970Z,82.50
2023-04-11T07:10:11.324Z,82.02
2023-04-11T07:13:17.555Z,80.85
2023-04-11T07:16:23.355Z,79.87
2023-04-11T07:19:28.851Z,74.72
2023-04-11T07:22:33.947Z,69.85
2023-04-11T07:25:39.741Z,67.58
2023-04-11T07:28:45.299Z,69.09
2023-04-11T07:31:51.712Z,68.29
2023-04-11T07:34:57.031Z,69.05
2023-04-11T07:38:02.522Z,63.25
2023-04-11T07:41:08.738Z,61.16
2023-04-11T07:44:13.792Z,61.02
2023-04-11T07:47:18.917Z,60.11
2023-04-11T07:50:24.395Z,50.72
2023-04-11T07:53:31.633Z,51.50
2023-04-11T07:56:37.463Z,51.14
2023-04-11T07:59:43.580Z,53.95
2023-04-11T08:02:50.038Z,54.58
2023-04-11T08:05:56.360Z,55.18
2023-04-11T08:09:01.696Z,54.79
2023-04-11T08:12:07.007Z,55.84
2023-04-11T08:15:12.626Z,54.32
2023-04-11T08:18:21.746Z,54.92
2023-04-11T08:21:26.767Z,53.10
2023-04-11T08:24:32.259Z,52.83
2023-04-11T08:27:38.917Z,52.46
2023-04-11T08:30:44.762Z,50.77
2023-04-11T08:33:50.962Z,50.53
2023-04-11T08:36:56.396Z,51.18
2023-04-11T08:40:01.985Z,48.75
2023-04-11T08:43:12.632Z,49.51
2023-04-11T08:46:18.715Z,48.84
2023-04-11T08:49:24.117Z,49.25
2023-04-11T08:52:31.335Z,49.31
2023-04-11T08:55:46.183Z,49.33
2023-04-11T08:58:51.761Z,48.08
2023-04-11T09:02:09.849Z,46.13
2023-04-11T09:05:36.408Z,47.21
2023-04-11T09:08:41.738Z,47.97
2023-04-11T09:11:54.825Z,47.47
2023-04-11T09:15:23.401Z,47.01
2023-04-11T09:18:42.532Z,46.23
2023-04-11T09:21:50.855Z,46.57
2023-04-11T09:25:03.836Z,47.62
2023-04-11T09:28:11.039Z,47.83
2023-04-11T09:31:16.483Z,44.80
2023-04-11T09:34:27.797Z,42.88
2023-04-11T09:38:04.054Z,43.24
2023-04-11T09:41:09.544Z,44.01
2023-04-11T09:44:14.901Z,42.83
2023-04-11T09:47:20.746Z,42.72
2023-04-11T09:50:27.973Z,43.33
2023-04-11T09:53:37.694Z,44.08
2023-04-11T09:56:43.482Z,43.32
2023-04-11T09:59:50.154Z,43.93
2023-04-11T10:02:55.981Z,43.64
2023-04-11T10:06:12.771Z,42.77
2023-04-11T10:09:19.655Z,43.16
2023-04-11T10:12:32.337Z,41.13
2023-04-11T10:15:37.957Z,42.65
2023-04-11T10:18:52.533Z,42.64
2023-04-11T10:21:57.931Z,41.29
2023-04-11T10:25:25.536Z,43.12
2023-04-11T10:28:40.857Z,41.00
2023-04-11T10:32:15.800Z,41.42
2023-04-11T10:35:22.825Z,42.11
2023-04-11T10:38:49.192Z,40.89
2023-04-11T10:41:54.990Z,41.93
2023-04-11T10:45:26.845Z,40.81
2023-04-11T10:48:32.009Z,41.13
2023-04-11T10:51:37.149Z,42.76
2023-04-11T10:54:42.563Z,41.83
2023-04-11T10:58:08.577Z,42.07
2023-04-11T11:01:26.317Z,42.44
2023-04-11T11:04:41.451Z,43.58
2023-04-11T11:07:48.394Z,41.61
2023-04-11T11:10:54.675Z,42.26
2023-04-11T11:14:01.607Z,42.16
2023-04-11T11:17:09.083Z,42.46
2023-04-11T11:20:20.472Z,44.46
2023-04-11T11:23:27.461Z,43.77
2023-04-11T11:26:40.917Z,41.91
2023-04-11T11:29:46.274Z,43.34
2023-04-11T11:32:51.695Z,43.61
2023-04-11T11:36:00.741Z,43.48
2023-04-11T11:39:06.994Z,43.65
2023-04-11T11:42:13.420Z,42.64
2023-04-11T11:45:23.568Z,43.16
2023-04-11T11:48:28.968Z,42.87
2023-04-11T11:51:42.819Z,42.64
2023-04-11T11:54:48.424Z,42.78
2023-04-11T11:57:54.217Z,43.16
2023-04-11T12:00:59.553Z,44.33
2023-04-11T12:04:11.689Z,43.25
2023-04-11T12:07:22.130Z,43.15
2023-04-11T12:10:46.970Z,43.35
2023-04-11T12:13:53.568Z,43.70
2023-04-11T12:16:59.344Z,43.52
2023-04-11T12:20:08.882Z,45.37
2023-04-11T12:23:14.080Z,44.87
2023-04-11T12:26:21.242Z,44.23
2023-04-11T12:29:26.858Z,44.04
2023-04-11T12:32:35.796Z,43.12
2023-04-11T12:35:41.615Z,44.00
2023-04-11T12:38:47.206Z,43.14
2023-04-11T12:41:52.696Z,43.92
2023-04-11T12:44:57.931Z,45.01
2023-04-11T12:48:03.056Z,45.19
2023-04-11T12:51:08.494Z,44.68
2023-04-11T12:54:13.824Z,44.76
2023-04-11T12:57:19.571Z,43.90
2023-04-11T13:00:25.628Z,45.35
2023-04-11T13:03:31.458Z,44.22
2023-04-11T13:06:37.752Z,45.30
2023-04-11T13:09:42.973Z,45.09
2023-04-11T13:12:48.800Z,46.46
2023-04-11T13:15:54.576Z,45.87
2023-04-11T13:19:00.161Z,46.69
2023-04-11T13:22:05.571Z,45.94
2023-04-11T13:25:12.578Z,47.58
2023-04-11T13:28:18.473Z,46.44
2023-04-11T13:31:27.980Z,46.36
2023-04-11T13:34:34.415Z,47.31
2023-04-11T13:37:39.769Z,46.08
2023-04-11T13:40:45.192Z,46.32
2023-04-11T13:43:52.489Z,46.61
2023-04-11T13:46:57.662Z,46.76
2023-04-11T13:50:03.412Z,46.94
2023-04-11T13:53:09.951Z,47.06
2023-04-11T13:56:15.548Z,48.18
2023-04-11T13:59:20.977Z,48.26
2023-04-11T14:02:26.432Z,48.26
2023-04-11T14:05:35.797Z,48.46
2023-04-11T14:08:41.572Z,48.00
2023-04-11T14:11:47.102Z,48.53
2023-04-11T14:14:52.863Z,47.80
2023-04-11T14:17:58.172Z,50.14
2023-04-11T14:21:06.073Z,48.26
2023-04-11T14:24:11.679Z,48.26
2023-04-11T14:27:17.572Z,47.94
2023-04-11T14:30:23.029Z,48.09
2023-04-11T14:33:28.998Z,47.62
2023-04-11T14:36:34.437Z,48.61
2023-04-11T14:39:40.186Z,48.58
2023-04-11T14:42:45.417Z,48.25
2023-04-11T14:45:56.028Z,48.80
2023-04-11T14:49:02.268Z,47.85
2023-04-11T14:52:08.041Z,48.30
2023-04-11T14:55:13.365Z,49.96
2023-04-11T14:58:18.574Z,48.36
2023-04-11T15:01:24.543Z,47.86
2023-04-11T15:04:30.174Z,48.02
2023-04-11T15:07:37.004Z,47.84
2023-04-11T15:10:42.580Z,48.99
2023-04-11T15:13:48.543Z,47.92
2023-04-11T15:16:54.064Z,48.87
2023-04-11T15:19:59.390Z,48.67
2023-04-11T15:23:04.542Z,49.86
2023-04-11T15:26:09.940Z,49.79
2023-04-11T15:29:18.236Z,50.00
2023-04-11T15:32:24.563Z,48.76
2023-04-11T15:35:29.913Z,49.71
2023-04-11T15:38:36.806Z,49.44
2023-04-11T15:41:42.046Z,49.25
2023-04-11T15:44:50.740Z,49.62
2023-04-11T15:47:56.663Z,49.66
2023-04-11T15:51:10.055Z,50.29
2023-04-11T15:54:15.668Z,50.22
2023-04-11T15:57:21.459Z,50.75
2023-04-11T16:00:27.991Z,49.49
2023-04-11T16:03:34.416Z,49.08
2023-04-11T16:06:40.975Z,49.53
2023-04-11T16:09:47.125Z,49.54
2023-04-11T16:12:52.894Z,50.10
2023-04-11T16:15:59.417Z,51.88
2023-04-11T16:19:04.753Z,50.95
2023-04-11T16:22:10.189Z,50.88
2023-04-11T16:25:19.072Z,52.15
2023-04-11T16:28:24.447Z,52.87
2023-04-11T16:31:31.671Z,54.00
2023-04-11T16:34:37.203Z,54.10
2023-04-11T16:37:42.861Z,55.75
2023-04-11T16:40:48.159Z,54.92
2023-04-11T16:43:53.789Z,54.97
2023-04-11T16:46:59.550Z,55.38
2023-04-11T16:50:06.056Z,56.74
2023-04-11T16:53:11.303Z,56.33
2023-04-11T16:56:20.283Z,56.86
2023-04-11T16:59:25.629Z,58.08
2023-04-11T17:02:31.246Z,58.41
2023-04-11T17:05:36.707Z,58.64
2023-04-11T17:08:43.332Z,57.80
2023-04-11T17:11:49.263Z,59.61
2023-04-11T17:14:56.178Z,60.31
2023-04-11T17:18:01.978Z,61.53
2023-04-11T17:21:07.651Z,62.64
2023-04-11T17:24:13.094Z,64.73
2023-04-11T17:27:18.555Z,65.17
2023-04-11T17:30:24.207Z,66.33
2023-04-11T17:33:29.744Z,68.22
2023-04-11T17:36:42.638Z,67.85
2023-04-11T17:39:49.986Z,68.04
2023-04-11T17:42:57.393Z,69.74
2023-04-11T17:46:02.991Z,70.30
2023-04-11T17:49:08.355Z,71.46
2023-04-11T17:52:13.628Z,72.64
2023-04-11T17:55:20.069Z,71.59
2023-04-11T17:58:25.630Z,73.55
2023-04-11T18:01:32.939Z,76.59
2023-04-11T18:04:38.646Z,75.98
2023-04-11T18:07:45.605Z,76.12
2023-04-11T18:10:51.873Z,76.42
2023-04-11T18:13:57.504Z,79.40
2023-04-11T18:17:03.148Z,80.50
2023-04-11T18:20:09.441Z,82.10
2023-04-11T18:23:14.839Z,83.36
2023-04-11T18:26:20.289Z,85.58
2023-04-11T18:29:26.233Z,87.95
2023-04-11T18:32:39.519Z,90.55
2023-04-11T18:35:47.849Z,90.92
2023-04-11T18:38:53.588Z,92.69
2023-04-11T18:41:59.197Z,93.23
2023-04-11T18:45:06.055Z,93.49
2023-04-11T18:48:12.087Z,96.57
2023-04-11T18:51:17.504Z,98.52
2023-04-11T18:54:23.654Z,98.40
2023-04-11T18:57:34.750Z,100.00
2023-04-11T19:00:42.996Z,100.00
2023-04-11T19:03:50.297Z,99.50
2023-04-11T19:06:56.908Z,99.10
2023-04-11T19:10:02.726Z,100.00
2023-04-11T19:13:08.390Z,99.97
2023-04-11T19:16:14.743Z,97.25
2023-04-11T19:19:20.633Z,89.70
2023-04-11T19:22:26.389Z,86.33
2023-04-11T19:25:33.066Z,83.32
2023-04-11T19:28:39.217Z,82.18
2023-04-11T19:31:45.349Z,80.89
2023-04-11T19:34:50.867Z,81.77
2023-04-11T19:37:57.465Z,79.65
2023-04-11T19:41:18.313Z,80.03
2023-04-11T19:44:25.124Z,77.39
2023-04-11T19:47:32.810Z,75.40
2023-04-11T19:50:39.172Z,73.16
2023-04-11T19:53:44.877Z,71.83
2023-04-11T19:56:53.695Z,70.48
2023-04-11T19:59:59.577Z,70.25
2023-04-11T20:03:07.842Z,68.68
2023-04-11T20:06:14.305Z,64.44
2023-04-11T20:09:20.176Z,62.81
2023-04-11T20:12:25.699Z,62.91
2023-04-11T20:15:32.006Z,63.00
2023-04-11T20:18:37.285Z,61.27
2023-04-11T20:21:42.715Z,60.00
2023-04-11T20:24:51.086Z,60.28
2023-04-11T20:27:56.768Z,59.84
2023-04-11T20:31:04.872Z,59.44
2023-04-11T20:34:11.407Z,59.85
2023-04-11T20:37:18.797Z,60.51
2023-04-11T20:40:26.999Z,60.99
2023-04-11T20:43:32.422Z,61.69
2023-04-11T20:46:40.085Z,62.98
2023-04-11T20:49:49.985Z,63.91
2023-04-11T20:52:55.261Z,64.48
2023-04-11T20:56:00.822Z,64.98
2023-04-11T20:59:07.568Z,65.97
2023-04-11T21:02:13.154Z,67.31
2023-04-11T21:05:25.338Z,67.30
2023-04-11T21:08:30.647Z,68.60
2023-04-11T21:11:36.526Z,69.55
2023-04-11T21:14:42.264Z,69.76
2023-04-11T21:17:47.770Z,70.28
2023-04-11T21:20:53.073Z,70.52
2023-04-11T21:23:58.615Z,70.67
2023-04-11T21:27:04.454Z,70.94
2023-04-11T21:30:10.897Z,70.27
2023-04-11T21:33:16.416Z,71.33
2023-04-11T21:36:21.719Z,70.67
2023-04-11T21:39:27.141Z,70.82
2023-04-11T21:42:32.400Z,70.13
2023-04-11T21:45:37.797Z,69.18
2023-04-11T21:48:43.293Z,68.31
2023-04-11T21:51:48.763Z,66.54
2023-04-11T21:54:54.053Z,66.11
2023-04-11T21:57:59.881Z,65.34
2023-04-11T22:01:05.934Z,63.79
2023-04-11T22:04:11.701Z,63.06
2023-04-11T22:07:18.170Z,63.52
2023-04-11T22:10:32.460Z,62.67
2023-04-11T22:13:46.949Z,62.43
2023-04-11T22:16:52.971Z,61.36
2023-04-11T22:20:01.157Z,61.55
2023-04-11T22:23:14.065Z,61.01
2023-04-11T22:26:26.646Z,60.56
2023-04-11T22:29:34.543Z,60.07
2023-04-11T22:32:40.155Z,60.73
2023-04-11T22:35:47.853Z,62.10
2023-04-11T22:38:53.844Z,62.79
2023-04-11T22:41:59.645Z,63.29
2023-04-11T22:45:06.333Z,63.59
2023-04-11T22:48:14.277Z,64.92
2023-04-11T22:51:22.154Z,65.87
2023-04-11T22:54:28.601Z,65.64
2023-04-11T22:57:35.206Z,65.05
2023-04-11T23:00:41.760Z,65.54
2023-04-11T23:03:47.639Z,65.41
2023-04-11T23:06:54.200Z,63.93
2023-04-11T23:10:06.549Z,62.76
2023-04-11T23:13:12.828Z,61.62
2023-04-11T23:16:18.499Z,60.01
2023-04-11T23:19:23.978Z,58.70
2023-04-11T23:22:29.306Z,58.18
2023-04-11T23:25:40.138Z,57.65
2023-04-11T23:28:47.158Z,56.72
2023-04-11T23:31:52.741Z,56.57
2023-04-11T23:34:58.186Z,55.78
2023-04-11T23:38:03.739Z,55.89
2023-04-11T23:41:08.973Z,55.35
2023-04-11T23:44:14.608Z,55.66
2023-04-11T23:47:20.636Z,55.43
2023-04-11T23:50:26.113Z,55.92
2023-04-11T23:53:31.888Z,56.06
2023-04-11T23:56:37.054Z,56.15
2023-04-11T23:59:42.285Z,56.56
